sensor_id;sensor_type;location;lat;lon;timestamp;pressure;altitude;pressure_sealevel;temperature;humidity
43770;BME280;6597;52.218;9.882;2022-09-01T00:01:57;101500.53;;;12.71;80.06
43770;BME280;6597;52.218;9.882;2022-09-01T00:04:24;101500.63;;;12.66;80.19
43770;BME280;6597;52.218;9.882;2022-09-01T00:06:52;101499.78;;;12.66;81.26
43770;BME280;6597;52.218;9.882;2022-09-01T00:09:22;101509.38;;;12.68;80.79
43770;BME280;6597;52.218;9.882;2022-09-01T00:11:51;101500.63;;;12.66;80.59
43770;BME280;6597;52.218;9.882;2022-09-01T00:14:19;101507.72;;;12.64;80.27
43770;BME280;6597;52.218;9.882;2022-09-01T00:16:46;101508.75;;;12.60;81.25
43770;BME280;6597;52.218;9.882;2022-09-01T00:19:14;101509.84;;;12.53;80.87
43770;BME280;6597;52.218;9.882;2022-09-01T00:21:43;101501.13;;;12.51;80.86
43770;BME280;6597;52.218;9.882;2022-09-01T00:24:12;101506.53;;;12.46;81.00
43770;BME280;6597;52.218;9.882;2022-09-01T00:26:39;101504.09;;;12.40;81.16
43770;BME280;6597;52.218;9.882;2022-09-01T00:29:05;101513.03;;;12.35;81.28
43770;BME280;6597;52.218;9.882;2022-09-01T00:31:33;101512.31;;;12.30;81.53
43770;BME280;6597;52.218;9.882;2022-09-01T00:34:00;101515.13;;;12.24;81.60
43770;BME280;6597;52.218;9.882;2022-09-01T00:36:29;101505.59;;;12.20;82.03
43770;BME280;6597;52.218;9.882;2022-09-01T00:38:55;101513.56;;;12.18;82.21
43770;BME280;6597;52.218;9.882;2022-09-01T00:41:24;101514.50;;;12.15;82.88
43770;BME280;6597;52.218;9.882;2022-09-01T00:43:53;101511.06;;;12.13;82.64
43770;BME280;6597;52.218;9.882;2022-09-01T00:46:22;101510.28;;;12.10;83.02
43770;BME280;6597;52.218;9.882;2022-09-01T00:48:52;101508.56;;;12.09;83.32
43770;BME280;6597;52.218;9.882;2022-09-01T00:51:19;101508.63;;;12.07;83.33
43770;BME280;6597;52.218;9.882;2022-09-01T00:53:48;101507.84;;;12.04;83.43
43770;BME280;6597;52.218;9.882;2022-09-01T00:56:15;101507.09;;;11.99;83.48
43770;BME280;6597;52.218;9.882;2022-09-01T00:58:42;101501.97;;;11.94;83.79
43770;BME280;6597;52.218;9.882;2022-09-01T01:01:10;101500.31;;;11.90;84.01
43770;BME280;6597;52.218;9.882;2022-09-01T01:03:38;101502.16;;;11.88;84.19
43770;BME280;6597;52.218;9.882;2022-09-01T01:06:10;101506.50;;;11.89;84.37
43770;BME280;6597;52.218;9.882;2022-09-01T01:08:40;101496.88;;;11.88;84.65
43770;BME280;6597;52.218;9.882;2022-09-01T01:11:25;101508.41;;;11.84;85.14
43770;BME280;6597;52.218;9.882;2022-09-01T01:13:56;101490.88;;;11.83;85.72
43770;BME280;6597;52.218;9.882;2022-09-01T01:16:25;101492.63;;;11.84;85.44
43770;BME280;6597;52.218;9.882;2022-09-01T01:18:53;101483.19;;;11.75;85.78
43770;BME280;6597;52.218;9.882;2022-09-01T01:21:24;101500.56;;;11.82;86.11
43770;BME280;6597;52.218;9.882;2022-09-01T01:24:20;101490.03;;;11.82;86.31
43770;BME280;6597;52.218;9.882;2022-09-01T01:26:48;101491.75;;;11.83;86.67
43770;BME280;6597;52.218;9.882;2022-09-01T01:29:15;101497.97;;;11.81;87.12
43770;BME280;6597;52.218;9.882;2022-09-01T01:31:43;101500.56;;;11.82;87.05
43770;BME280;6597;52.218;9.882;2022-09-01T01:34:11;101506.69;;;11.83;87.37
43770;BME280;6597;52.218;9.882;2022-09-01T01:36:39;101494.34;;;11.85;87.20
43770;BME280;6597;52.218;9.882;2022-09-01T01:39:13;101493.38;;;11.88;86.86
43770;BME280;6597;52.218;9.882;2022-09-01T01:41:43;101492.53;;;11.87;86.31
43770;BME280;6597;52.218;9.882;2022-09-01T01:44:15;101502.28;;;11.83;86.54
43770;BME280;6597;52.218;9.882;2022-09-01T01:46:45;101498.06;;;11.78;86.48
43770;BME280;6597;52.218;9.882;2022-09-01T01:49:15;101501.75;;;11.69;86.77
43770;BME280;6597;52.218;9.882;2022-09-01T01:51:45;101495.94;;;11.58;87.42
43770;BME280;6597;52.218;9.882;2022-09-01T01:54:13;101501.16;;;11.60;88.12
43770;BME280;6597;52.218;9.882;2022-09-01T01:56:41;101496.84;;;11.57;88.80
43770;BME280;6597;52.218;9.882;2022-09-01T01:59:08;101492.47;;;11.56;89.33
43770;BME280;6597;52.218;9.882;2022-09-01T02:01:37;101504.72;;;11.57;90.26
43770;BME280;6597;52.218;9.882;2022-09-01T02:04:08;101501.09;;;11.61;89.62
43770;BME280;6597;52.218;9.882;2022-09-01T02:06:37;101496.72;;;11.62;89.23
43770;BME280;6597;52.218;9.882;2022-09-01T02:09:06;101501.09;;;11.61;89.11
43770;BME280;6597;52.218;9.882;2022-09-01T02:11:33;101503.81;;;11.58;89.28
43770;BME280;6597;52.218;9.882;2022-09-01T02:14:05;101498.59;;;11.57;89.25
43770;BME280;6597;52.218;9.882;2022-09-01T02:16:33;101500.47;;;11.53;89.40
43770;BME280;6597;52.218;9.882;2022-09-01T02:19:03;101503.19;;;11.50;89.84
43770;BME280;6597;52.218;9.882;2022-09-01T02:21:31;101501.44;;;11.49;90.05
43770;BME280;6597;52.218;9.882;2022-09-01T02:24:01;101485.75;;;11.46;89.84
43770;BME280;6597;52.218;9.882;2022-09-01T02:26:32;101501.44;;;11.49;90.25
43770;BME280;6597;52.218;9.882;2022-09-01T02:29:03;101494.56;;;11.45;90.17
43770;BME280;6597;52.218;9.882;2022-09-01T02:31:32;101499.13;;;11.38;90.20
43770;BME280;6597;52.218;9.882;2022-09-01T02:34:04;101493.13;;;11.32;90.02
43770;BME280;6597;52.218;9.882;2022-09-01T02:36:36;101491.53;;;11.26;90.26
43770;BME280;6597;52.218;9.882;2022-09-01T02:39:12;101494.28;;;11.21;90.46
43770;BME280;6597;52.218;9.882;2022-09-01T02:41:39;101490.88;;;11.18;90.69
43770;BME280;6597;52.218;9.882;2022-09-01T02:44:06;101483.97;;;11.14;91.01
43770;BME280;6597;52.218;9.882;2022-09-01T02:46:38;101479.78;;;11.07;90.89
43770;BME280;6597;52.218;9.882;2022-09-01T02:49:08;101494.66;;;11.08;91.17
43770;BME280;6597;52.218;9.882;2022-09-01T02:51:40;101484.19;;;11.05;91.54
43770;BME280;6597;52.218;9.882;2022-09-01T02:54:07;101488.63;;;11.03;91.76
43770;BME280;6597;52.218;9.882;2022-09-01T02:56:33;101477.25;;;11.02;92.38
43770;BME280;6597;52.218;9.882;2022-09-01T02:59:00;101482.53;;;11.01;92.48
43770;BME280;6597;52.218;9.882;2022-09-01T03:01:29;101477.28;;;11.01;93.01
43770;BME280;6597;52.218;9.882;2022-09-01T03:04:00;101487.88;;;10.98;93.20
43770;BME280;6597;52.218;9.882;2022-09-01T03:06:28;101481.88;;;10.93;93.39
43770;BME280;6597;52.218;9.882;2022-09-01T03:08:57;101483.66;;;10.92;93.98
43770;BME280;6597;52.218;9.882;2022-09-01T03:11:25;101483.69;;;10.90;93.85
43770;BME280;6597;52.218;9.882;2022-09-01T03:13:52;101478.56;;;10.86;94.08
43770;BME280;6597;52.218;9.882;2022-09-01T03:16:19;101484.72;;;10.85;94.39
43770;BME280;6597;52.218;9.882;2022-09-01T03:18:47;101485.66;;;10.82;94.21
43770;BME280;6597;52.218;9.882;2022-09-01T03:21:17;101485.75;;;10.78;93.91
43770;BME280;6597;52.218;9.882;2022-09-01T03:23:44;101487.59;;;10.74;94.18
43770;BME280;6597;52.218;9.882;2022-09-01T03:26:12;101488.56;;;10.70;94.43
43770;BME280;6597;52.218;9.882;2022-09-01T03:28:40;101485.13;;;10.67;93.99
43770;BME280;6597;52.218;9.882;2022-09-01T03:31:08;101482.63;;;10.62;94.66
43770;BME280;6597;52.218;9.882;2022-09-01T03:33:35;101481.84;;;10.58;94.15
43770;BME280;6597;52.218;9.882;2022-09-01T03:36:03;101480.16;;;10.56;94.68
43770;BME280;6597;52.218;9.882;2022-09-01T03:38:31;101474.97;;;10.53;94.16
43770;BME280;6597;52.218;9.882;2022-09-01T03:41:00;101471.56;;;10.49;94.28
43770;BME280;6597;52.218;9.882;2022-09-01T03:43:29;101480.38;;;10.47;94.70
43770;BME280;6597;52.218;9.882;2022-09-01T03:45:57;101480.44;;;10.44;94.60
43770;BME280;6597;52.218;9.882;2022-09-01T03:48:25;101472.59;;;10.42;94.77
43770;BME280;6597;52.218;9.882;2022-09-01T03:50:54;101470.88;;;10.40;94.73
43770;BME280;6597;52.218;9.882;2022-09-01T03:53:23;101484.94;;;10.37;95.04
43770;BME280;6597;52.218;9.882;2022-09-01T03:55:55;101483.22;;;10.36;95.06
43770;BME280;6597;52.218;9.882;2022-09-01T03:58:23;101476.28;;;10.34;95.56
43770;BME280;6597;52.218;9.882;2022-09-01T04:00:53;101480.66;;;10.33;94.87
43770;BME280;6597;52.218;9.882;2022-09-01T04:03:22;101485.13;;;10.29;95.33
43770;BME280;6597;52.218;9.882;2022-09-01T04:05:51;101486.06;;;10.27;95.85
43770;BME280;6597;52.218;9.882;2022-09-01T04:08:20;101483.50;;;10.24;95.61
43770;BME280;6597;52.218;9.882;2022-09-01T04:10:50;101487.06;;;10.21;96.05
43770;BME280;6597;52.218;9.882;2022-09-01T04:13:22;101480.09;;;10.20;95.97
43770;BME280;6597;52.218;9.882;2022-09-01T04:15:50;101488.81;;;10.21;96.14
43770;BME280;6597;52.218;9.882;2022-09-01T04:18:18;101485.34;;;10.19;96.27
43770;BME280;6597;52.218;9.882;2022-09-01T04:20:49;101489.69;;;10.20;96.29
43770;BME280;6597;52.218;9.882;2022-09-01T04:23:18;101491.44;;;10.19;96.50
43770;BME280;6597;52.218;9.882;2022-09-01T04:25:53;101495.91;;;10.16;96.81
43770;BME280;6597;52.218;9.882;2022-09-01T04:28:24;101485.50;;;10.11;96.92
43770;BME280;6597;52.218;9.882;2022-09-01T04:30:52;101487.19;;;10.14;96.53
43770;BME280;6597;52.218;9.882;2022-09-01T04:33:22;101479.44;;;10.08;97.06
43770;BME280;6597;52.218;9.882;2022-09-01T04:35:50;101487.28;;;10.11;97.35
43770;BME280;6597;52.218;9.882;2022-09-01T04:38:20;101488.13;;;10.11;97.58
43770;BME280;6597;52.218;9.882;2022-09-01T04:40:47;101484.69;;;10.09;97.05
43770;BME280;6597;52.218;9.882;2022-09-01T04:43:16;101483.81;;;10.07;97.96
43770;BME280;6597;52.218;9.882;2022-09-01T04:45:46;101481.34;;;10.01;97.51
43770;BME280;6597;52.218;9.882;2022-09-01T04:48:17;101482.09;;;10.06;97.49
43770;BME280;6597;52.218;9.882;2022-09-01T04:50:43;101490.81;;;10.07;97.92
43770;BME280;6597;52.218;9.882;2022-09-01T04:53:19;101494.31;;;10.07;97.82
43770;BME280;6597;52.218;9.882;2022-09-01T04:55:48;101494.31;;;10.09;98.47
43770;BME280;6597;52.218;9.882;2022-09-01T04:58:19;101497.75;;;10.11;98.67
43770;BME280;6597;52.218;9.882;2022-09-01T05:00:49;101483.81;;;10.07;98.96
43770;BME280;6597;52.218;9.882;2022-09-01T05:03:18;101497.69;;;10.14;99.09
43770;BME280;6597;52.218;9.882;2022-09-01T05:05:53;101502.00;;;10.16;99.25
43770;BME280;6597;52.218;9.882;2022-09-01T05:08:22;101497.56;;;10.21;99.74
43770;BME280;6597;52.218;9.882;2022-09-01T05:10:51;101493.09;;;10.25;99.85
43770;BME280;6597;52.218;9.882;2022-09-01T05:13:38;101501.78;;;10.28;99.63
43770;BME280;6597;52.218;9.882;2022-09-01T05:16:08;101500.75;;;10.34;99.84
43770;BME280;6597;52.218;9.882;2022-09-01T05:18:37;101497.16;;;10.38;99.84
43770;BME280;6597;52.218;9.882;2022-09-01T05:21:07;101497.06;;;10.44;100.00
43770;BME280;6597;52.218;9.882;2022-09-01T05:23:34;101496.91;;;10.50;100.00
43770;BME280;6597;52.218;9.882;2022-09-01T05:26:02;101492.38;;;10.57;100.00
43770;BME280;6597;52.218;9.882;2022-09-01T05:28:32;101493.00;;;10.67;100.00
43770;BME280;6597;52.218;9.882;2022-09-01T05:30:59;101496.34;;;10.75;100.00
43770;BME280;6597;52.218;9.882;2022-09-01T05:33:30;101473.56;;;10.75;100.00
43770;BME280;6597;52.218;9.882;2022-09-01T05:36:02;101493.22;;;10.95;100.00
43770;BME280;6597;52.218;9.882;2022-09-01T05:38:33;101498.22;;;11.04;100.00
43770;BME280;6597;52.218;9.882;2022-09-01T05:41:03;101492.81;;;11.11;100.00
43770;BME280;6597;52.218;9.882;2022-09-01T05:43:33;101495.22;;;11.19;100.00
43770;BME280;6597;52.218;9.882;2022-09-01T05:46:01;101497.66;;;11.27;100.00
43770;BME280;6597;52.218;9.882;2022-09-01T05:48:33;101496.53;;;11.35;100.00
43770;BME280;6597;52.218;9.882;2022-09-01T05:51:04;101500.84;;;11.39;100.00
43770;BME280;6597;52.218;9.882;2022-09-01T05:53:32;101500.59;;;11.48;100.00
43770;BME280;6597;52.218;9.882;2022-09-01T05:55:59;101505.63;;;11.56;100.00
43770;BME280;6597;52.218;9.882;2022-09-01T05:58:32;101496.63;;;11.65;100.00
43770;BME280;6597;52.218;9.882;2022-09-01T06:01:00;101494.75;;;11.68;100.00
43770;BME280;6597;52.218;9.882;2022-09-01T06:03:27;101499.94;;;11.73;100.00
43770;BME280;6597;52.218;9.882;2022-09-01T06:06:01;101497.16;;;11.79;100.00
43770;BME280;6597;52.218;9.882;2022-09-01T06:08:30;101494.34;;;11.85;100.00
43770;BME280;6597;52.218;9.882;2022-09-01T06:10:56;101500.19;;;11.95;100.00
43770;BME280;6597;52.218;9.882;2022-09-01T06:13:23;101500.75;;;12.06;100.00
43770;BME280;6597;52.218;9.882;2022-09-01T06:15:50;101497.94;;;12.12;100.00
43770;BME280;6597;52.218;9.882;2022-09-01T06:18:19;101499.34;;;12.24;100.00
43770;BME280;6597;52.218;9.882;2022-09-01T06:20:54;101499.97;;;12.32;99.90
43770;BME280;6597;52.218;9.882;2022-09-01T06:23:23;101492.72;;;12.40;99.58
43770;BME280;6597;52.218;9.882;2022-09-01T06:25:50;101498.75;;;12.43;98.82
43770;BME280;6597;52.218;9.882;2022-09-01T06:28:19;101501.19;;;12.50;97.96
43770;BME280;6597;52.218;9.882;2022-09-01T06:30:48;101503.78;;;12.51;98.84
43770;BME280;6597;52.218;9.882;2022-09-01T06:33:15;101509.75;;;12.56;99.30
43770;BME280;6597;52.218;9.882;2022-09-01T06:35:46;101510.34;;;12.64;98.78
43770;BME280;6597;52.218;9.882;2022-09-01T06:38:14;101507.56;;;12.70;98.94
43770;BME280;6597;52.218;9.882;2022-09-01T06:40:47;101501.88;;;12.83;98.81
43770;BME280;6597;52.218;9.882;2022-09-01T06:43:14;101501.47;;;12.95;98.49
43770;BME280;6597;52.218;9.882;2022-09-01T06:45:46;101501.91;;;13.09;98.07
43770;BME280;6597;52.218;9.882;2022-09-01T06:48:18;101516.28;;;13.25;97.17
43770;BME280;6597;52.218;9.882;2022-09-01T06:50:47;101508.00;;;13.37;96.33
43770;BME280;6597;52.218;9.882;2022-09-01T06:53:14;101509.31;;;13.49;94.39
43770;BME280;6597;52.218;9.882;2022-09-01T06:55:48;101517.75;;;13.59;93.61
43770;BME280;6597;52.218;9.882;2022-09-01T06:58:17;101515.75;;;13.67;93.27
43770;BME280;6597;52.218;9.882;2022-09-01T07:00:48;101519.66;;;13.80;92.14
43770;BME280;6597;52.218;9.882;2022-09-01T07:03:15;101510.47;;;13.90;92.78
43770;BME280;6597;52.218;9.882;2022-09-01T07:06:06;101521.16;;;14.11;92.86
43770;BME280;6597;52.218;9.882;2022-09-01T07:08:53;101521.97;;;14.36;92.40
43770;BME280;6597;52.218;9.882;2022-09-01T07:11:29;101518.38;;;14.60;89.74
43770;BME280;6597;52.218;9.882;2022-09-01T07:13:59;101516.53;;;14.84;88.32
43770;BME280;6597;52.218;9.882;2022-09-01T07:16:31;101519.56;;;15.17;87.42
43770;BME280;6597;52.218;9.882;2022-09-01T07:19:00;101515.00;;;15.63;87.37
43770;BME280;6597;52.218;9.882;2022-09-01T07:21:30;101514.94;;;16.04;83.96
43770;BME280;6597;52.218;9.882;2022-09-01T07:23:58;101518.66;;;16.37;81.22
43770;BME280;6597;52.218;9.882;2022-09-01T07:26:29;101523.41;;;16.68;80.30
43770;BME280;6597;52.218;9.882;2022-09-01T07:29:00;101525.41;;;16.99;78.99
43770;BME280;6597;52.218;9.882;2022-09-01T07:31:30;101518.81;;;17.25;77.41
43770;BME280;6597;52.218;9.882;2022-09-01T07:34:02;101526.34;;;17.50;76.20
43770;BME280;6597;52.218;9.882;2022-09-01T07:36:30;101518.88;;;17.76;74.81
43770;BME280;6597;52.218;9.882;2022-09-01T07:38:58;101526.41;;;18.16;71.15
43770;BME280;6597;52.218;9.882;2022-09-01T07:41:26;101516.91;;;18.44;69.43
43770;BME280;6597;52.218;9.882;2022-09-01T07:44:24;101522.88;;;18.64;68.40
43770;BME280;6597;52.218;9.882;2022-09-01T07:47:23;101518.81;;;18.73;64.82
43770;BME280;6597;52.218;9.882;2022-09-01T07:49:49;101517.69;;;18.77;66.18
43770;BME280;6597;52.218;9.882;2022-09-01T07:52:17;101518.19;;;18.84;65.26
43770;BME280;6597;52.218;9.882;2022-09-01T07:54:44;101524.19;;;19.03;64.17
43770;BME280;6597;52.218;9.882;2022-09-01T07:57:11;101522.13;;;19.38;64.40
43770;BME280;6597;52.218;9.882;2022-09-01T07:59:42;101530.66;;;19.59;61.50
43770;BME280;6597;52.218;9.882;2022-09-01T08:02:14;101526.88;;;19.77;61.37
43770;BME280;6597;52.218;9.882;2022-09-01T08:04:44;101520.78;;;20.04;60.37
43770;BME280;6597;52.218;9.882;2022-09-01T08:07:11;101526.78;;;20.07;57.99
43770;BME280;6597;52.218;9.882;2022-09-01T08:09:38;101529.34;;;20.23;57.44
43770;BME280;6597;52.218;9.882;2022-09-01T08:12:07;101526.00;;;20.48;56.21
43770;BME280;6597;52.218;9.882;2022-09-01T08:14:42;101532.97;;;20.50;55.22
43770;BME280;6597;52.218;9.882;2022-09-01T08:17:10;101528.31;;;20.26;55.54
43770;BME280;6597;52.218;9.882;2022-09-01T08:19:37;101522.88;;;20.13;55.11
43770;BME280;6597;52.218;9.882;2022-09-01T08:22:07;101527.53;;;20.24;56.27
43770;BME280;6597;52.218;9.882;2022-09-01T08:25:08;101525.72;;;20.53;54.41
43770;BME280;6597;52.218;9.882;2022-09-01T08:27:36;101519.41;;;20.80;53.63
43770;BME280;6597;52.218;9.882;2022-09-01T08:30:08;101523.41;;;21.15;53.35
43770;BME280;6597;52.218;9.882;2022-09-01T08:32:37;101531.97;;;21.20;51.78
43770;BME280;6597;52.218;9.882;2022-09-01T08:35:08;101528.25;;;20.95;52.11
43770;BME280;6597;52.218;9.882;2022-09-01T08:37:35;101533.78;;;20.37;50.75
43770;BME280;6597;52.218;9.882;2022-09-01T08:40:02;101536.88;;;19.88;51.51
43770;BME280;6597;52.218;9.882;2022-09-01T08:42:45;101543.81;;;19.46;51.61
43770;BME280;6597;52.218;9.882;2022-09-01T08:45:19;101536.28;;;19.09;52.00
43770;BME280;6597;52.218;9.882;2022-09-01T08:47:50;101531.69;;;18.96;53.10
43770;BME280;6597;52.218;9.882;2022-09-01T08:50:18;101532.81;;;18.92;53.88
43770;BME280;6597;52.218;9.882;2022-09-01T08:53:17;101535.66;;;18.89;53.58
43770;BME280;6597;52.218;9.882;2022-09-01T08:55:50;101532.81;;;18.77;54.14
43770;BME280;6597;52.218;9.882;2022-09-01T08:58:20;101541.91;;;18.88;55.56
43770;BME280;6597;52.218;9.882;2022-09-01T09:01:21;101538.47;;;19.46;50.53
43770;BME280;6597;52.218;9.882;2022-09-01T09:04:11;101528.38;;;19.81;50.23
43770;BME280;6597;52.218;9.882;2022-09-01T09:06:46;101525.63;;;20.26;49.85
43770;BME280;6597;52.218;9.882;2022-09-01T09:09:17;101519.53;;;20.79;47.36
43770;BME280;6597;52.218;9.882;2022-09-01T09:12:04;101532.94;;;20.92;48.00
43770;BME280;6597;52.218;9.882;2022-09-01T09:14:53;101530.72;;;21.25;47.53
43770;BME280;6597;52.218;9.882;2022-09-01T09:17:28;101525.72;;;21.46;46.92
43770;BME280;6597;52.218;9.882;2022-09-01T09:19:55;101528.94;;;21.77;46.24
43770;BME280;6597;52.218;9.882;2022-09-01T09:22:22;101527.13;;;22.02;45.88
43770;BME280;6597;52.218;9.882;2022-09-01T09:24:50;101514.38;;;22.31;45.11
43770;BME280;6597;52.218;9.882;2022-09-01T09:27:22;101514.41;;;22.55;44.54
43770;BME280;6597;52.218;9.882;2022-09-01T09:29:51;101515.66;;;22.62;44.37
43770;BME280;6597;52.218;9.882;2022-09-01T09:32:18;101503.84;;;22.78;43.85
43770;BME280;6597;52.218;9.882;2022-09-01T09:34:47;101507.66;;;23.10;43.17
43770;BME280;6597;52.218;9.882;2022-09-01T09:37:20;101500.03;;;22.93;43.34
43770;BME280;6597;52.218;9.882;2022-09-01T09:40:09;101502.34;;;22.74;42.94
43770;BME280;6597;52.218;9.882;2022-09-01T09:42:38;101502.19;;;23.12;42.61
43770;BME280;6597;52.218;9.882;2022-09-01T09:45:12;101494.44;;;23.31;43.01
43770;BME280;6597;52.218;9.882;2022-09-01T09:47:44;101504.81;;;23.36;41.22
43770;BME280;6597;52.218;9.882;2022-09-01T09:50:18;101495.09;;;23.46;42.65
43770;BME280;6597;52.218;9.882;2022-09-01T09:52:46;101493.19;;;23.59;42.57
43770;BME280;6597;52.218;9.882;2022-09-01T09:55:24;101499.53;;;23.58;40.19
43770;BME280;6597;52.218;9.882;2022-09-01T09:57:54;101491.41;;;23.36;40.57
43770;BME280;6597;52.218;9.882;2022-09-01T10:00:24;101494.25;;;23.45;41.24
43770;BME280;6597;52.218;9.882;2022-09-01T10:02:54;101482.16;;;23.75;40.83
43770;BME280;6597;52.218;9.882;2022-09-01T10:05:38;101486.75;;;24.17;39.80
43770;BME280;6597;52.218;9.882;2022-09-01T10:08:08;101474.44;;;24.15;38.54
43770;BME280;6597;52.218;9.882;2022-09-01T10:10:39;101479.56;;;24.07;38.47
43770;BME280;6597;52.218;9.882;2022-09-01T10:13:10;101466.88;;;23.98;38.54
43770;BME280;6597;52.218;9.882;2022-09-01T10:15:37;101468.00;;;23.84;38.69
43770;BME280;6597;52.218;9.882;2022-09-01T10:18:08;101475.78;;;23.65;37.11
43770;BME280;6597;52.218;9.882;2022-09-01T10:20:45;101470.16;;;23.68;38.89
43770;BME280;6597;52.218;9.882;2022-09-01T10:23:14;101469.56;;;23.98;37.68
43770;BME280;6597;52.218;9.882;2022-09-01T10:25:41;101461.97;;;24.36;37.03
43770;BME280;6597;52.218;9.882;2022-09-01T10:28:13;101464.34;;;24.62;36.17
43770;BME280;6597;52.218;9.882;2022-09-01T10:30:42;101462.91;;;24.58;36.01
43770;BME280;6597;52.218;9.882;2022-09-01T10:33:14;101455.44;;;24.72;36.33
43770;BME280;6597;52.218;9.882;2022-09-01T10:35:44;101452.47;;;24.75;35.01
43770;BME280;6597;52.218;9.882;2022-09-01T10:38:15;101462.97;;;24.67;35.30
43770;BME280;6597;52.218;9.882;2022-09-01T10:40:44;101450.47;;;24.57;34.53
43770;BME280;6597;52.218;9.882;2022-09-01T10:43:25;101446.75;;;25.01;34.32
43770;BME280;6597;52.218;9.882;2022-09-01T10:45:53;101451.28;;;25.21;33.72
43770;BME280;6597;52.218;9.882;2022-09-01T10:48:28;101447.25;;;24.95;33.13
43770;BME280;6597;52.218;9.882;2022-09-01T10:53:57;101441.69;;;24.87;34.81
43770;BME280;6597;52.218;9.882;2022-09-01T10:56:35;101438.47;;;24.61;33.48
43770;BME280;6597;52.218;9.882;2022-09-01T10:59:05;101444.75;;;24.82;33.78
43770;BME280;6597;52.218;9.882;2022-09-01T11:02:03;101437.53;;;25.15;33.60
43770;BME280;6597;52.218;9.882;2022-09-01T11:07:35;101431.13;;;25.57;33.06
43770;BME280;6597;52.218;9.882;2022-09-01T11:13:19;101438.28;;;25.47;31.81
43770;BME280;6597;52.218;9.882;2022-09-01T11:15:48;101432.44;;;25.11;32.06
43770;BME280;6597;52.218;9.882;2022-09-01T11:18:17;101428.19;;;24.98;32.09
43770;BME280;6597;52.218;9.882;2022-09-01T11:20:50;101438.41;;;24.83;32.81
43770;BME280;6597;52.218;9.882;2022-09-01T11:23:23;101434.00;;;25.14;32.50
43770;BME280;6597;52.218;9.882;2022-09-01T11:25:53;101429.78;;;25.42;31.76
43770;BME280;6597;52.218;9.882;2022-09-01T11:28:43;101429.25;;;25.48;32.12
43770;BME280;6597;52.218;9.882;2022-09-01T11:31:29;101436.53;;;25.36;31.46
43770;BME280;6597;52.218;9.882;2022-09-01T11:34:11;101431.91;;;25.38;31.43
43770;BME280;6597;52.218;9.882;2022-09-01T11:36:46;101416.00;;;25.66;31.18
43770;BME280;6597;52.218;9.882;2022-09-01T11:39:28;101416.69;;;25.89;31.10
43770;BME280;6597;52.218;9.882;2022-09-01T11:42:00;101419.59;;;25.15;30.85
43770;BME280;6597;52.218;9.882;2022-09-01T11:44:33;101413.69;;;24.68;31.95
43770;BME280;6597;52.218;9.882;2022-09-01T11:47:04;101415.81;;;24.86;33.04
43770;BME280;6597;52.218;9.882;2022-09-01T11:49:33;101419.03;;;25.21;30.90
43770;BME280;6597;52.218;9.882;2022-09-01T11:52:03;101411.63;;;25.34;30.76
43770;BME280;6597;52.218;9.882;2022-09-01T11:54:38;101409.16;;;25.73;30.61
43770;BME280;6597;52.218;9.882;2022-09-01T11:57:24;101407.41;;;26.02;29.79
43770;BME280;6597;52.218;9.882;2022-09-01T11:59:52;101405.50;;;26.33;31.34
43770;BME280;6597;52.218;9.882;2022-09-01T12:02:22;101405.53;;;26.43;30.57
43770;BME280;6597;52.218;9.882;2022-09-01T12:04:50;101400.50;;;26.29;28.47
43770;BME280;6597;52.218;9.882;2022-09-01T12:07:42;101404.19;;;26.28;29.17
43770;BME280;6597;52.218;9.882;2022-09-01T12:10:16;101399.06;;;26.15;29.93
43770;BME280;6597;52.218;9.882;2022-09-01T12:12:45;101408.13;;;26.14;30.30
43770;BME280;6597;52.218;9.882;2022-09-01T12:15:18;101399.00;;;26.55;29.80
43770;BME280;6597;52.218;9.882;2022-09-01T12:17:45;101405.09;;;26.38;28.57
43770;BME280;6597;52.218;9.882;2022-09-01T12:20:23;101406.38;;;25.63;29.77
43770;BME280;6597;52.218;9.882;2022-09-01T12:22:51;101405.00;;;24.97;31.17
43770;BME280;6597;52.218;9.882;2022-09-01T12:25:20;101397.88;;;24.54;31.95
43770;BME280;6597;52.218;9.882;2022-09-01T12:27:49;101394.19;;;24.23;32.71
43770;BME280;6597;52.218;9.882;2022-09-01T12:30:17;101389.50;;;23.93;32.57
43770;BME280;6597;52.218;9.882;2022-09-01T12:32:44;101388.25;;;23.97;32.87
43770;BME280;6597;52.218;9.882;2022-09-01T12:35:15;101386.56;;;24.07;33.22
43770;BME280;6597;52.218;9.882;2022-09-01T12:37:43;101388.25;;;23.97;32.37
43770;BME280;6597;52.218;9.882;2022-09-01T12:40:24;101394.28;;;23.78;33.77
43770;BME280;6597;52.218;9.882;2022-09-01T12:42:57;101386.97;;;23.58;34.16
43770;BME280;6597;52.218;9.882;2022-09-01T12:45:40;101384.25;;;23.36;34.48
43770;BME280;6597;52.218;9.882;2022-09-01T12:48:23;101379.72;;;23.36;35.33
43770;BME280;6597;52.218;9.882;2022-09-01T12:50:50;101391.06;;;23.28;35.50
43770;BME280;6597;52.218;9.882;2022-09-01T12:53:20;101398.97;;;23.30;35.65
43770;BME280;6597;52.218;9.882;2022-09-01T12:56:02;101385.22;;;23.35;36.09
43770;BME280;6597;52.218;9.882;2022-09-01T12:58:31;101393.00;;;23.26;36.13
43770;BME280;6597;52.218;9.882;2022-09-01T13:01:01;101387.03;;;23.12;35.29
43770;BME280;6597;52.218;9.882;2022-09-01T13:03:30;101384.91;;;22.93;36.07
43770;BME280;6597;52.218;9.882;2022-09-01T13:05:58;101379.84;;;22.77;36.47
43770;BME280;6597;52.218;9.882;2022-09-01T13:08:27;101379.22;;;22.74;37.60
43770;BME280;6597;52.218;9.882;2022-09-01T13:10:57;101359.50;;;22.75;36.05
43770;BME280;6597;52.218;9.882;2022-09-01T13:13:25;101365.69;;;22.88;35.96
43770;BME280;6597;52.218;9.882;2022-09-01T13:15:56;101369.38;;;23.09;35.87
43770;BME280;6597;52.218;9.882;2022-09-01T13:18:25;101373.41;;;23.15;36.09
43770;BME280;6597;52.218;9.882;2022-09-01T13:20:52;101365.88;;;23.53;36.55
43770;BME280;6597;52.218;9.882;2022-09-01T13:23:19;101358.72;;;24.19;34.93
43770;BME280;6597;52.218;9.882;2022-09-01T13:25:46;101355.63;;;24.35;34.14
43770;BME280;6597;52.218;9.882;2022-09-01T13:28:14;101363.34;;;24.06;34.47
43770;BME280;6597;52.218;9.882;2022-09-01T13:30:42;101358.19;;;23.71;34.48